createdAt,value
2017-07-12T00:00:24.845Z,85.20
2017-07-12T00:02:52.353Z,85.80
2017-07-12T00:05:19.840Z,85.20
2017-07-12T00:07:47.354Z,85.60
2017-07-12T00:10:14.856Z,85.60
2017-07-12T00:12:42.368Z,85.80
2017-07-12T00:15:09.868Z,85.50
2017-07-12T00:17:37.369Z,86.00
2017-07-12T00:20:04.857Z,84.90
2017-07-12T00:22:32.376Z,85.10
2017-07-12T00:24:59.867Z,84.90
2017-07-12T00:27:27.385Z,85.30
2017-07-12T00:29:54.901Z,85.40
2017-07-12T00:32:22.413Z,85.50
2017-07-12T00:34:49.918Z,85.60
2017-07-12T00:37:17.423Z,84.90
2017-07-12T00:39:44.919Z,85.00
2017-07-12T00:42:12.437Z,84.10
2017-07-12T00:44:39.937Z,84.40
2017-07-12T00:47:07.444Z,84.00
2017-07-12T00:49:34.950Z,84.80
2017-07-12T00:52:02.445Z,85.40
2017-07-12T00:54:29.954Z,86.00
2017-07-12T00:56:57.439Z,86.50
2017-07-12T00:59:24.955Z,86.70
2017-07-12T01:01:52.458Z,86.40
2017-07-12T01:04:19.969Z,85.90
2017-07-12T01:06:47.467Z,86.10
2017-07-12T01:09:14.996Z,85.50
2017-07-12T01:11:42.493Z,84.90
2017-07-12T01:14:10.005Z,84.70
2017-07-12T01:16:37.504Z,84.60
2017-07-12T01:19:05.028Z,84.70
2017-07-12T01:21:32.525Z,84.50
2017-07-12T01:24:00.036Z,84.20
2017-07-12T01:26:27.528Z,84.20
2017-07-12T01:28:55.052Z,84.30
2017-07-12T01:31:22.574Z,84.30
2017-07-12T01:33:50.099Z,84.00
2017-07-12T01:36:17.642Z,84.30
2017-07-12T01:38:45.193Z,85.00
2017-07-12T01:41:12.696Z,85.20
2017-07-12T01:43:40.230Z,85.80
2017-07-12T01:46:07.720Z,85.10
2017-07-12T01:48:35.236Z,84.60
2017-07-12T01:51:02.741Z,84.10
2017-07-12T01:53:30.259Z,84.50
2017-07-12T01:55:57.770Z,83.90
2017-07-12T01:58:25.281Z,83.50
2017-07-12T02:00:52.829Z,83.60
2017-07-12T02:03:20.322Z,83.40
2017-07-12T02:05:47.861Z,82.70
2017-07-12T02:08:15.369Z,83.70
2017-07-12T02:10:42.893Z,83.20
2017-07-12T02:13:10.405Z,82.80
2017-07-12T02:15:37.924Z,82.90
2017-07-12T02:18:05.433Z,83.70
2017-07-12T02:20:32.977Z,83.60
2017-07-12T02:23:00.473Z,83.10
2017-07-12T02:25:27.995Z,83.00
2017-07-12T02:27:55.515Z,82.80
2017-07-12T02:30:23.033Z,82.70
2017-07-12T02:32:51.404Z,83.40
2017-07-12T02:35:18.939Z,83.20
2017-07-12T02:37:46.440Z,82.90
2017-07-12T02:40:13.962Z,82.90
2017-07-12T02:42:41.484Z,83.70
2017-07-12T02:45:08.995Z,83.20
2017-07-12T02:47:36.524Z,83.40
2017-07-12T02:50:04.087Z,83.20
2017-07-12T02:52:31.588Z,84.70
2017-07-12T02:54:59.085Z,84.00
2017-07-12T02:57:26.611Z,84.70
2017-07-12T02:59:54.117Z,85.60
2017-07-12T03:02:21.641Z,85.80
2017-07-12T03:04:49.141Z,85.00
2017-07-12T03:07:16.649Z,84.80
2017-07-12T03:09:44.150Z,84.70
2017-07-12T03:12:11.684Z,84.70
2017-07-12T03:14:39.181Z,84.90
2017-07-12T03:17:06.709Z,84.40
2017-07-12T03:19:34.222Z,84.50
2017-07-12T03:22:01.753Z,85.30
2017-07-12T03:24:29.303Z,85.70
2017-07-12T03:26:56.841Z,84.60
2017-07-12T03:29:24.333Z,85.00
2017-07-12T03:31:51.853Z,84.50
2017-07-12T03:34:19.358Z,84.80
2017-07-12T03:36:46.869Z,84.70
2017-07-12T03:39:14.381Z,85.40
2017-07-12T03:41:41.892Z,85.20
2017-07-12T03:44:09.404Z,85.50
2017-07-12T03:46:36.923Z,85.10
2017-07-12T03:49:04.412Z,85.30
2017-07-12T03:51:31.950Z,84.80
2017-07-12T03:53:59.468Z,85.00
2017-07-12T03:56:26.973Z,84.90
2017-07-12T03:58:54.493Z,84.70
2017-07-12T04:01:21.996Z,85.20
2017-07-12T04:03:49.527Z,85.80
2017-07-12T04:06:17.022Z,84.80
2017-07-12T04:08:44.530Z,84.60
2017-07-12T04:11:12.036Z,85.00
2017-07-12T04:13:39.564Z,85.20
2017-07-12T04:16:07.069Z,85.10
2017-07-12T04:18:34.582Z,85.40
2017-07-12T04:21:02.083Z,85.60
2017-07-12T04:23:29.604Z,86.10
2017-07-12T04:25:57.110Z,85.80
2017-07-12T04:28:24.625Z,86.30
2017-07-12T04:30:52.126Z,86.40
2017-07-12T04:33:19.949Z,85.70
2017-07-12T04:35:47.580Z,85.60
2017-07-12T04:38:15.165Z,86.10
2017-07-12T04:40:42.693Z,86.50
2017-07-12T04:43:10.221Z,86.10
2017-07-12T04:45:37.746Z,86.10
2017-07-12T04:48:05.361Z,86.80
2017-07-12T04:50:32.875Z,86.80
2017-07-12T04:53:00.696Z,86.80
2017-07-12T04:55:28.407Z,86.50
2017-07-12T04:57:57.380Z,86.70
2017-07-12T05:00:26.933Z,85.40
2017-07-12T05:02:59.152Z,84.30
2017-07-12T05:05:31.061Z,83.80
2017-07-12T05:08:04.299Z,83.40
2017-07-12T05:10:41.060Z,83.60
2017-07-12T05:13:10.879Z,83.20
2017-07-12T05:15:38.451Z,83.10
2017-07-12T05:18:06.382Z,83.00
2017-07-12T05:20:33.961Z,83.60
2017-07-12T05:23:01.478Z,84.10
2017-07-12T05:25:29.035Z,84.00
2017-07-12T05:27:56.561Z,83.70
2017-07-12T05:30:24.113Z,83.40
2017-07-12T05:32:51.620Z,82.90
2017-07-12T05:35:19.151Z,82.20
2017-07-12T05:37:46.687Z,82.60
2017-07-12T05:40:14.225Z,82.40
2017-07-12T05:42:41.754Z,81.90
2017-07-12T05:45:09.269Z,82.30
2017-07-12T05:47:36.755Z,81.80
2017-07-12T05:50:04.277Z,80.70
2017-07-12T05:52:31.783Z,80.80
2017-07-12T05:54:59.305Z,80.10
2017-07-12T05:57:26.825Z,80.20
2017-07-12T05:59:54.380Z,79.00
2017-07-12T06:02:21.898Z,79.30
2017-07-12T06:04:50.091Z,79.80
2017-07-12T06:07:17.781Z,79.20
2017-07-12T06:09:45.277Z,79.20
2017-07-12T06:12:12.805Z,78.50
2017-07-12T06:14:40.354Z,78.80
2017-07-12T06:17:07.895Z,79.00
2017-07-12T06:19:35.422Z,79.00
2017-07-12T06:22:03.011Z,79.10
2017-07-12T06:24:30.532Z,79.30
2017-07-12T06:26:58.941Z,77.90
2017-07-12T06:29:26.479Z,78.70
2017-07-12T06:31:55.159Z,77.90
2017-07-12T06:34:22.887Z,78.00
2017-07-12T06:36:50.478Z,78.00
2017-07-12T06:39:18.049Z,78.20
2017-07-12T06:41:45.592Z,78.50
2017-07-12T06:44:13.195Z,78.30
2017-07-12T06:46:40.914Z,78.30
2017-07-12T06:49:10.802Z,78.50
2017-07-12T06:51:38.891Z,79.10
2017-07-12T06:54:08.630Z,79.60
2017-07-12T06:56:36.174Z,79.60
2017-07-12T06:59:03.704Z,79.90
2017-07-12T07:01:31.249Z,80.00
2017-07-12T07:03:58.766Z,80.60
2017-07-12T07:06:26.325Z,81.50
2017-07-12T07:08:53.863Z,83.20
2017-07-12T07:11:21.517Z,83.70
2017-07-12T07:13:49.056Z,84.90
2017-07-12T07:16:16.588Z,85.90
2017-07-12T07:18:44.142Z,84.20
2017-07-12T07:21:11.675Z,85.00
2017-07-12T07:23:39.216Z,85.50
2017-07-12T07:26:06.749Z,85.70
2017-07-12T07:28:34.297Z,84.90
2017-07-12T07:31:01.800Z,85.70
2017-07-12T07:33:30.578Z,85.80
2017-07-12T07:35:58.097Z,85.90
2017-07-12T07:38:25.615Z,88.00
2017-07-12T07:40:53.109Z,87.30
2017-07-12T07:43:20.621Z,88.40
2017-07-12T07:45:48.165Z,88.30
2017-07-12T07:48:15.716Z,88.20
2017-07-12T07:50:43.233Z,87.50
2017-07-12T07:53:11.488Z,87.80
2017-07-12T07:55:38.998Z,88.20
2017-07-12T07:58:06.525Z,88.50
2017-07-12T08:00:34.077Z,88.40
2017-07-12T08:03:01.631Z,88.40
2017-07-12T08:05:29.169Z,89.20
2017-07-12T08:07:56.701Z,87.70
2017-07-12T08:10:24.237Z,88.10
2017-07-12T08:12:51.798Z,87.80
2017-07-12T08:15:19.333Z,88.60
2017-07-12T08:17:46.862Z,88.90
2017-07-12T08:20:14.377Z,89.40
2017-07-12T08:22:41.880Z,89.00
2017-07-12T08:25:09.397Z,90.00
2017-07-12T08:27:36.904Z,89.00
2017-07-12T08:30:04.475Z,89.70
2017-07-12T08:32:32.053Z,89.50
2017-07-12T08:34:59.570Z,89.60
2017-07-12T08:37:27.054Z,89.10
2017-07-12T08:39:54.572Z,88.90
2017-07-12T08:42:22.081Z,88.80
2017-07-12T08:44:49.601Z,90.00
2017-07-12T08:47:17.109Z,89.40
2017-07-12T08:49:44.638Z,89.10
2017-07-12T08:52:12.140Z,89.00
2017-07-12T08:54:39.657Z,89.20
2017-07-12T08:57:07.150Z,88.70
2017-07-12T08:59:34.670Z,87.90
2017-07-12T09:02:02.204Z,88.40
2017-07-12T09:04:29.736Z,88.60
2017-07-12T09:06:57.223Z,88.90
2017-07-12T09:09:24.718Z,88.20
2017-07-12T09:11:52.233Z,87.50
2017-07-12T09:14:19.721Z,87.70
2017-07-12T09:16:47.246Z,88.20
2017-07-12T09:19:14.793Z,87.80
2017-07-12T09:21:42.305Z,88.30
2017-07-12T09:24:10.090Z,88.30
2017-07-12T09:34:00.164Z,87.60
2017-07-12T09:36:27.675Z,88.30
2017-07-12T09:38:55.185Z,88.60
2017-07-12T09:41:22.742Z,87.90
2017-07-12T09:43:50.260Z,89.10
2017-07-12T09:46:17.820Z,88.50
2017-07-12T09:48:45.351Z,89.40
2017-07-12T09:51:13.111Z,89.50
2017-07-12T09:53:40.678Z,89.40
2017-07-12T09:56:08.206Z,89.20
2017-07-12T09:58:35.690Z,88.90
2017-07-12T10:01:03.201Z,89.30
2017-07-12T10:03:30.703Z,89.10
2017-07-12T10:05:58.237Z,89.00
2017-07-12T10:08:25.829Z,88.70
2017-07-12T10:10:53.339Z,88.90
2017-07-12T10:13:21.461Z,89.30
2017-07-12T10:15:48.982Z,89.40
2017-07-12T10:18:16.536Z,88.90
2017-07-12T10:20:44.057Z,89.80
2017-07-12T10:23:11.578Z,88.50
2017-07-12T10:25:39.083Z,89.10
2017-07-12T10:28:06.617Z,89.70
2017-07-12T10:30:34.118Z,90.00
2017-07-12T10:33:01.637Z,90.30
2017-07-12T10:35:29.124Z,90.30
2017-07-12T10:37:56.629Z,90.20
2017-07-12T10:40:24.145Z,89.70
2017-07-12T10:42:51.664Z,90.00
2017-07-12T10:45:19.201Z,90.40
2017-07-12T10:47:46.724Z,90.30
2017-07-12T10:50:14.218Z,90.50
2017-07-12T10:52:41.854Z,90.50
2017-07-12T10:55:09.380Z,90.20
2017-07-12T10:57:36.901Z,90.10
2017-07-12T11:00:04.400Z,89.80
2017-07-12T11:02:31.909Z,90.00
2017-07-12T11:04:59.411Z,89.80
2017-07-12T11:07:26.929Z,90.10
2017-07-12T11:09:54.426Z,90.20
2017-07-12T11:12:21.922Z,89.20
2017-07-12T11:14:49.444Z,88.90
2017-07-12T11:17:16.948Z,87.90
2017-07-12T11:19:44.467Z,88.40
2017-07-12T11:22:12.008Z,88.70
2017-07-12T11:24:39.983Z,89.80
2017-07-12T11:27:07.473Z,90.60
2017-07-12T11:29:34.985Z,90.60
2017-07-12T11:32:02.481Z,90.90
2017-07-12T11:34:29.992Z,90.80
2017-07-12T11:36:57.507Z,90.60
2017-07-12T11:39:25.025Z,91.00
2017-07-12T11:41:52.544Z,91.30
2017-07-12T11:44:20.069Z,91.20
2017-07-12T11:46:47.562Z,90.90
2017-07-12T11:49:15.085Z,90.90
2017-07-12T11:51:42.582Z,91.40
2017-07-12T11:54:10.098Z,91.40
2017-07-12T11:56:37.588Z,91.40
2017-07-12T11:59:05.112Z,91.40
2017-07-12T12:01:32.610Z,91.50
2017-07-12T12:04:00.163Z,91.30
2017-07-12T12:06:27.670Z,92.00
2017-07-12T12:08:55.165Z,91.10
2017-07-12T12:11:22.664Z,91.60
2017-07-12T12:13:50.151Z,91.40
2017-07-12T12:16:17.735Z,91.50
2017-07-12T12:18:45.236Z,91.10
2017-07-12T12:21:12.765Z,91.20
2017-07-12T12:23:40.517Z,91.80
2017-07-12T12:26:08.029Z,91.20
2017-07-12T12:28:35.681Z,91.40
2017-07-12T12:31:03.256Z,91.40
2017-07-12T12:33:30.772Z,91.40
2017-07-12T12:35:58.281Z,91.70
2017-07-12T12:38:25.794Z,91.50
2017-07-12T12:40:53.311Z,91.50
2017-07-12T12:43:21.013Z,91.80
2017-07-12T12:45:48.568Z,91.20
2017-07-12T12:48:16.340Z,91.90
2017-07-12T12:50:44.035Z,91.50
2017-07-12T12:53:11.713Z,91.10
2017-07-12T12:55:39.337Z,90.10
2017-07-12T12:58:06.892Z,89.70
2017-07-12T13:00:34.445Z,90.00
2017-07-12T13:03:01.957Z,88.80
2017-07-12T13:05:37.039Z,89.10
2017-07-12T13:08:04.880Z,88.50
2017-07-12T13:10:32.385Z,89.70
2017-07-12T13:12:59.982Z,89.00
2017-07-12T13:15:27.653Z,88.60
2017-07-12T13:17:55.186Z,88.80
2017-07-12T13:20:22.698Z,88.90
2017-07-12T13:22:50.277Z,88.20
2017-07-12T13:25:17.803Z,89.10
2017-07-12T13:27:45.338Z,87.40
2017-07-12T13:30:12.850Z,87.40
2017-07-12T13:32:40.410Z,87.40
2017-07-12T13:35:07.920Z,85.20
2017-07-12T13:37:35.441Z,84.40
2017-07-12T13:40:03.017Z,83.40
2017-07-12T13:42:30.588Z,84.00
2017-07-12T13:44:58.134Z,83.90
2017-07-12T13:47:26.420Z,84.40
2017-07-12T13:49:54.680Z,83.50
2017-07-12T13:52:22.249Z,82.50
2017-07-12T13:54:49.905Z,82.80
2017-07-12T13:57:17.435Z,83.30
2017-07-12T13:59:44.956Z,84.50
2017-07-12T14:02:12.531Z,85.30
2017-07-12T14:04:40.188Z,84.60
2017-07-12T14:07:07.716Z,82.30
2017-07-12T14:09:35.216Z,83.40
2017-07-12T14:12:02.713Z,82.30
2017-07-12T14:14:30.315Z,81.90
2017-07-12T14:16:57.753Z,82.40
2017-07-12T14:19:25.260Z,82.80
2017-07-12T14:21:52.753Z,82.40
2017-07-12T14:24:20.267Z,82.30
2017-07-12T14:26:47.779Z,82.20
2017-07-12T14:29:16.254Z,82.00
2017-07-12T14:31:43.760Z,82.10
2017-07-12T14:34:11.285Z,81.50
2017-07-12T14:36:38.798Z,81.80
2017-07-12T14:39:06.948Z,82.10
2017-07-12T14:41:34.458Z,82.50
2017-07-12T14:44:02.017Z,81.20
2017-07-12T14:46:30.358Z,80.30
2017-07-12T14:48:57.881Z,80.20
2017-07-12T14:51:25.408Z,80.00
2017-07-12T14:53:52.945Z,78.90
2017-07-12T14:56:20.446Z,78.70
2017-07-12T14:58:47.985Z,78.30
2017-07-12T15:01:15.595Z,78.40
2017-07-12T15:03:43.176Z,77.90
2017-07-12T15:06:10.974Z,77.00
2017-07-12T15:08:38.490Z,76.70
2017-07-12T15:11:06.019Z,77.10
2017-07-12T15:13:33.554Z,76.10
2017-07-12T15:16:01.082Z,77.10
2017-07-12T15:18:28.716Z,77.00
2017-07-12T15:20:56.231Z,76.00
2017-07-12T15:23:23.745Z,76.20
2017-07-12T15:25:51.271Z,76.80
2017-07-12T15:28:18.798Z,76.10
2017-07-12T15:30:46.331Z,76.40
2017-07-12T15:33:14.595Z,73.40
2017-07-12T15:35:45.405Z,76.70
2017-07-12T15:38:14.769Z,81.90
2017-07-12T15:40:42.316Z,82.60
2017-07-12T15:43:11.531Z,83.60
2017-07-12T15:45:39.169Z,84.30
2017-07-12T15:48:06.668Z,84.50
2017-07-12T15:50:34.180Z,83.90
2017-07-12T15:53:01.740Z,83.80
2017-07-12T15:55:29.257Z,83.60
2017-07-12T15:57:56.741Z,81.70
2017-07-12T16:00:24.272Z,82.10
2017-07-12T16:02:52.083Z,82.40
2017-07-12T16:05:19.611Z,81.70
2017-07-12T16:07:47.117Z,82.30
2017-07-12T16:10:14.709Z,80.40
2017-07-12T16:12:42.242Z,81.20
2017-07-12T16:15:09.825Z,80.10
2017-07-12T16:17:37.329Z,79.90
2017-07-12T16:20:04.922Z,81.70
2017-07-12T16:22:32.454Z,80.70
2017-07-12T16:24:59.960Z,81.70
2017-07-12T16:27:27.469Z,81.60
2017-07-12T16:29:54.969Z,80.50
2017-07-12T16:32:22.493Z,79.40
2017-07-12T16:34:50.057Z,79.60
2017-07-12T16:37:17.595Z,79.20
2017-07-12T16:39:45.106Z,78.70
2017-07-12T16:42:12.680Z,78.20
2017-07-12T16:44:40.220Z,79.30
2017-07-12T16:47:07.814Z,79.50
2017-07-12T16:49:35.336Z,79.70
2017-07-12T16:52:02.874Z,78.50
2017-07-12T16:54:30.449Z,77.90
2017-07-12T16:56:58.079Z,77.50
2017-07-12T16:59:25.586Z,76.90
2017-07-12T17:01:53.110Z,76.30
2017-07-12T17:04:20.645Z,75.10
2017-07-12T17:06:48.176Z,75.20
2017-07-12T17:09:15.744Z,73.30
2017-07-12T17:11:43.273Z,74.20
2017-07-12T17:14:10.790Z,74.80
2017-07-12T17:16:38.326Z,74.70
2017-07-12T17:19:05.886Z,74.20
2017-07-12T17:21:33.472Z,73.50
2017-07-12T17:24:00.982Z,74.30
2017-07-12T17:26:28.493Z,75.10
2017-07-12T17:28:56.010Z,75.40
2017-07-12T17:31:23.515Z,74.10
2017-07-12T17:33:51.029Z,73.60
2017-07-12T17:36:18.543Z,73.40
2017-07-12T17:38:46.065Z,73.20
2017-07-12T17:41:13.565Z,73.90
2017-07-12T17:43:41.088Z,74.10
2017-07-12T17:46:08.588Z,74.70
2017-07-12T17:48:36.108Z,74.70
2017-07-12T17:51:03.632Z,74.50
2017-07-12T17:53:31.147Z,74.00
2017-07-12T17:55:58.711Z,74.50
2017-07-12T17:58:26.282Z,73.90
2017-07-12T18:00:53.773Z,74.60
2017-07-12T18:03:21.287Z,74.50
2017-07-12T18:05:48.796Z,74.70
2017-07-12T18:08:16.322Z,74.30
2017-07-12T18:10:43.922Z,74.20
2017-07-12T18:13:11.461Z,74.60
2017-07-12T18:18:26.054Z,74.50
2017-07-12T18:20:53.596Z,74.20
2017-07-12T18:23:21.285Z,74.10
2017-07-12T18:25:49.016Z,73.90
2017-07-12T18:28:16.579Z,74.10
2017-07-12T18:30:44.313Z,74.30
2017-07-12T18:33:12.613Z,74.20
2017-07-12T18:35:40.224Z,74.20
2017-07-12T18:38:07.902Z,74.30
2017-07-12T18:40:35.543Z,74.40
2017-07-12T18:43:03.082Z,74.80
2017-07-12T18:45:30.680Z,74.70
2017-07-12T18:47:58.263Z,74.60
2017-07-12T18:50:25.820Z,74.60
2017-07-12T18:52:53.552Z,74.60
2017-07-12T18:55:21.153Z,74.40
2017-07-12T18:57:49.332Z,74.60
2017-07-12T19:00:17.556Z,75.90
2017-07-12T19:02:45.055Z,75.80
2017-07-12T19:05:12.601Z,74.70
2017-07-12T19:07:40.079Z,74.90
2017-07-12T19:10:20.270Z,74.60
2017-07-12T19:12:47.772Z,74.70
2017-07-12T19:15:15.284Z,73.90
2017-07-12T19:17:42.765Z,74.10
2017-07-12T19:20:10.270Z,73.80
2017-07-12T19:22:38.524Z,74.50
2017-07-12T19:25:06.043Z,74.10
2017-07-12T19:27:33.540Z,73.40
2017-07-12T19:30:01.054Z,73.60
2017-07-12T19:32:28.541Z,73.10
2017-07-12T19:34:56.080Z,73.80
2017-07-12T19:37:24.579Z,73.90
2017-07-12T19:39:52.877Z,74.30
2017-07-12T19:42:20.375Z,75.00
2017-07-12T19:44:47.860Z,74.10
2017-07-12T19:47:16.129Z,73.70
2017-07-12T19:49:43.614Z,73.70
2017-07-12T19:52:11.124Z,73.60
2017-07-12T19:54:38.607Z,72.50
2017-07-12T19:57:06.117Z,72.80
2017-07-12T19:59:33.599Z,71.20
2017-07-12T20:02:01.105Z,71.70
2017-07-12T20:04:29.673Z,70.70
2017-07-12T20:06:57.201Z,70.50
2017-07-12T20:09:24.742Z,69.70
2017-07-12T20:11:52.273Z,70.40
2017-07-12T20:14:19.784Z,70.20
2017-07-12T20:16:47.293Z,70.10
2017-07-12T20:19:14.797Z,70.20
2017-07-12T20:21:42.320Z,71.00
2017-07-12T20:24:09.807Z,71.70
2017-07-12T20:26:37.321Z,71.90
2017-07-12T20:29:05.780Z,71.70
2017-07-12T20:31:33.296Z,71.70
2017-07-12T20:34:00.803Z,71.50
2017-07-12T20:36:28.307Z,71.70
2017-07-12T20:38:55.792Z,71.20
2017-07-12T20:41:23.276Z,71.60
2017-07-12T20:43:50.779Z,71.60
2017-07-12T20:46:18.264Z,72.00
2017-07-12T20:48:45.774Z,72.70
2017-07-12T20:51:13.272Z,73.60
2017-07-12T20:53:40.785Z,73.10
2017-07-12T20:56:08.373Z,73.00
2017-07-12T20:58:36.639Z,73.10
2017-07-12T21:01:04.127Z,73.10
2017-07-12T21:03:31.628Z,72.20
2017-07-12T21:05:59.113Z,72.60
2017-07-12T21:08:26.613Z,73.00
2017-07-12T21:10:54.105Z,73.70
2017-07-12T21:13:21.612Z,72.80
2017-07-12T21:15:49.101Z,72.50
2017-07-12T21:18:16.611Z,73.10
2017-07-12T21:20:44.097Z,72.40
2017-07-12T21:23:12.389Z,72.60
2017-07-12T21:25:39.868Z,72.60
2017-07-12T21:28:07.379Z,72.80
2017-07-12T21:30:39.269Z,73.20
2017-07-12T21:33:06.772Z,72.70
2017-07-12T21:35:34.257Z,73.00
2017-07-12T21:38:01.760Z,73.40
2017-07-12T21:40:29.251Z,73.70
2017-07-12T21:42:56.781Z,73.50
2017-07-12T21:45:24.262Z,73.50
2017-07-12T21:47:51.756Z,72.80
2017-07-12T21:50:19.252Z,73.30
2017-07-12T21:52:46.735Z,72.50
2017-07-12T21:55:31.887Z,73.30
2017-07-12T21:58:17.065Z,73.10
2017-07-12T22:01:02.260Z,73.40
2017-07-12T22:03:47.220Z,73.90
2017-07-12T22:06:32.221Z,74.10
2017-07-12T22:09:17.252Z,73.50
2017-07-12T22:12:02.122Z,72.40
2017-07-12T22:14:47.270Z,71.90
2017-07-12T22:17:37.560Z,72.20
2017-07-12T22:20:22.700Z,71.50
2017-07-12T22:23:07.765Z,72.60
2017-07-12T22:25:52.748Z,73.40
2017-07-12T22:28:37.726Z,74.70
2017-07-12T22:31:22.861Z,75.00
2017-07-12T22:34:08.083Z,74.30
2017-07-12T22:36:53.832Z,73.30
2017-07-12T22:39:26.937Z,73.20
2017-07-12T22:42:00.855Z,74.50
2017-07-12T22:44:27.852Z,74.50
2017-07-12T22:46:55.358Z,74.90
2017-07-12T22:49:22.848Z,75.20
2017-07-12T22:51:51.117Z,75.60
2017-07-12T22:54:18.674Z,75.50
2017-07-12T22:56:46.136Z,75.60
2017-07-12T22:59:13.629Z,75.20
2017-07-12T23:01:41.932Z,75.30
2017-07-12T23:04:09.423Z,75.20
2017-07-12T23:06:36.935Z,75.20
2017-07-12T23:09:04.423Z,75.70
2017-07-12T23:11:32.688Z,76.40
2017-07-12T23:14:00.167Z,75.60
2017-07-12T23:16:27.675Z,75.90
2017-07-12T23:18:55.165Z,76.20
2017-07-12T23:21:22.668Z,76.60
2017-07-12T23:23:50.388Z,76.40
2017-07-12T23:26:17.873Z,75.80
2017-07-12T23:28:45.388Z,75.90
2017-07-12T23:31:12.885Z,75.30
2017-07-12T23:33:40.392Z,75.90
2017-07-12T23:36:07.889Z,76.40
2017-07-12T23:38:35.404Z,76.20
2017-07-12T23:41:02.884Z,76.00
2017-07-12T23:43:30.388Z,76.40
2017-07-12T23:45:57.882Z,76.50
2017-07-12T23:48:25.393Z,77.00
2017-07-12T23:50:52.881Z,77.10
2017-07-12T23:53:20.394Z,78.20
2017-07-12T23:55:47.989Z,78.50
2017-07-12T23:58:15.409Z,78.70
